Back to Top

Language: 

My Weather Underground Personal Weather Station Historical Data with Graphs...

Delerius Weather Station Historical Data
Daily Summary for July 28, 2017 Units:  Metric    English   Both
« Previous Day
Next Day »
Daily Weekly Monthly Yearly Custom
  High: Low: Average:
Temperature: 20.7 °C 12.3 °C 15.5 °C
Dew Point: 15.7 °C 10.3 °C 12.7 °C
Humidity: 96 % 61 % 84 %
Wind Speed: 27.4 km/h 0 km/h 13.7 km/h
Wind Gust: 49.9 km/h - -
Wind:- - SW
Pressure: 1003.6 hPa 999.5 hPa -
Precipitation: 5.33 mm    
Historical Graphs
 
 
Tabular Data for July 28, 2017
Time Temperature Dew Point Pressure Wind Wind Speed Wind Gust Humidity Rainfall Rate (Hourly) solar Conditions
00:04 13.7 °C 11.1 °C 1001.9 hPa SW 11.3 km/h 22.5 km/h 84 % 0 mm 0 W/m2
00:09 13.7 °C 11.1 °C 1001.9 hPa SW 12.9 km/h 22.5 km/h 84 % 0 mm 0 W/m2
00:14 13.8 °C 11.2 °C 1001.9 hPa SW 11.3 km/h 22.5 km/h 84 % 0 mm 0 W/m2
00:19 13.7 °C 11.1 °C 1001.9 hPa SW 8 km/h 16.1 km/h 84 % 0 mm 0 W/m2
00:24 13.7 °C 11.2 °C 1001.9 hPa SSW 6.4 km/h 12.9 km/h 85 % 0 mm 0 W/m2
00:29 13.7 °C 11.2 °C 1001.9 hPa SSW 6.4 km/h 14.5 km/h 85 % 0 mm 0 W/m2
00:34 13.7 °C 11.2 °C 1001.9 hPa SW 4.8 km/h 14.5 km/h 85 % 0 mm 0 W/m2
00:39 13.6 °C 11.1 °C 1001.9 hPa SW 3.2 km/h 8 km/h 85 % 0 mm 0 W/m2
00:44 13.7 °C 11.2 °C 1001.9 hPa SW 6.4 km/h 17.7 km/h 85 % 0 mm 0 W/m2
00:49 13.7 °C 11.1 °C 1001.9 hPa SW 11.3 km/h 19.3 km/h 84 % 0 mm 0 W/m2
00:54 13.7 °C 10.9 °C 1001.9 hPa SW 12.9 km/h 30.6 km/h 83 % 0 mm 0 W/m2
00:59 13.8 °C 10.9 °C 1001.6 hPa SW 12.9 km/h 30.6 km/h 83 % 0 mm 0 W/m2
01:04 13.8 °C 10.9 °C 1001.9 hPa WSW 14.5 km/h 38.6 km/h 83 % 0 mm 0 W/m2
01:09 13.9 °C 10.9 °C 1001.6 hPa WSW 20.9 km/h 38.6 km/h 82 % 0 mm 0 W/m2
01:14 13.9 °C 10.7 °C 1001.9 hPa WSW 22.5 km/h 38.6 km/h 81 % 0 mm 0 W/m2
01:19 13.9 °C 10.7 °C 1001.9 hPa WSW 19.3 km/h 35.4 km/h 81 % 0 mm 0 W/m2
01:24 13.9 °C 10.7 °C 1001.9 hPa WSW 19.3 km/h 33.8 km/h 81 % 0 mm 0 W/m2
01:29 13.9 °C 10.7 °C 1001.9 hPa WSW 19.3 km/h 35.4 km/h 81 % 0 mm 0 W/m2
01:34 13.9 °C 10.7 °C 1001.9 hPa WSW 19.3 km/h 35.4 km/h 81 % 0 mm 0 W/m2
01:39 13.9 °C 10.9 °C 1001.9 hPa WSW 17.7 km/h 32.2 km/h 82 % 0 mm 0 W/m2
01:44 13.8 °C 10.8 °C 1001.9 hPa WSW 17.7 km/h 29 km/h 82 % 0 mm 0 W/m2
01:49 13.8 °C 10.8 °C 1002.3 hPa WSW 16.1 km/h 24.1 km/h 82 % 0 mm 0 W/m2
01:54 13.7 °C 10.7 °C 1002.3 hPa WSW 14.5 km/h 24.1 km/h 82 % 0 mm 0 W/m2
01:59 13.7 °C 10.7 °C 1002.3 hPa WSW 14.5 km/h 25.7 km/h 82 % 0 mm 0 W/m2
02:05 13.7 °C 10.7 °C 1002.3 hPa WSW 14.5 km/h 30.6 km/h 82 % 0 mm 0 W/m2
02:10 13.6 °C 10.6 °C 1002.3 hPa SW 16.1 km/h 32.2 km/h 82 % 0 mm 0 W/m2
02:15 13.6 °C 10.6 °C 1002.3 hPa WSW 16.1 km/h 32.2 km/h 82 % 0 mm 0 W/m2
02:20 13.6 °C 10.6 °C 1002.3 hPa WSW 16.1 km/h 29 km/h 82 % 0 mm 0 W/m2
02:25 13.6 °C 10.6 °C 1002.3 hPa WSW 14.5 km/h 24.1 km/h 82 % 0 mm 0 W/m2
02:30 13.6 °C 10.6 °C 1002.3 hPa WSW 12.9 km/h 22.5 km/h 82 % 0 mm 0 W/m2
02:35 13.6 °C 10.6 °C 1001.9 hPa SW 14.5 km/h 24.1 km/h 82 % 0 mm 0 W/m2
02:40 13.6 °C 10.6 °C 1001.9 hPa SW 14.5 km/h 24.1 km/h 82 % 0 mm 0 W/m2
02:45 13.5 °C 10.5 °C 1001.9 hPa SW 14.5 km/h 20.9 km/h 82 % 0 mm 0 W/m2
02:50 13.4 °C 10.4 °C 1001.9 hPa SW 14.5 km/h 20.9 km/h 82 % 0 mm 0 W/m2
02:55 13.4 °C 10.6 °C 1001.9 hPa SW 12.9 km/h 22.5 km/h 83 % 0 mm 0 W/m2
03:00 13.3 °C 10.5 °C 1001.9 hPa SW 14.5 km/h 22.5 km/h 83 % 0 mm 0 W/m2
03:05 13.3 °C 10.5 °C 1001.9 hPa WSW 12.9 km/h 22.5 km/h 83 % 0 mm 0 W/m2
03:10 13.2 °C 10.4 °C 1001.9 hPa SW 12.9 km/h 22.5 km/h 83 % 0 mm 0 W/m2
03:15 13.2 °C 10.4 °C 1001.9 hPa SW 12.9 km/h 22.5 km/h 83 % 0 mm 0 W/m2
03:20 13.1 °C 10.3 °C 1002.3 hPa SW 11.3 km/h 19.3 km/h 83 % 0 mm 0 W/m2
03:25 13.1 °C 10.4 °C 1002.3 hPa SW 11.3 km/h 17.7 km/h 84 % 0 mm 0 W/m2
03:30 13.1 °C 10.4 °C 1002.3 hPa SW 11.3 km/h 17.7 km/h 84 % 0 mm 0 W/m2
03:35 13.1 °C 10.4 °C 1002.3 hPa SW 11.3 km/h 17.7 km/h 84 % 0 mm 0 W/m2
03:40 13.1 °C 10.4 °C 1002.3 hPa SW 9.7 km/h 17.7 km/h 84 % 0 mm 0 W/m2
03:45 13.1 °C 10.4 °C 1002.3 hPa SW 11.3 km/h 19.3 km/h 84 % 0 mm 0 W/m2
03:50 13.1 °C 10.4 °C 1002.3 hPa SW 11.3 km/h 19.3 km/h 84 % 0 mm 0 W/m2
03:55 13.1 °C 10.4 °C 1002.3 hPa SW 11.3 km/h 17.7 km/h 84 % 0 mm 0 W/m2
04:00 13.2 °C 10.6 °C 1002.3 hPa SW 12.9 km/h 19.3 km/h 84 % 0 mm 0 W/m2
04:05 13.2 °C 10.6 °C 1002.3 hPa SW 12.9 km/h 19.3 km/h 84 % 0 mm 0 W/m2
04:10 13.2 °C 10.7 °C 1002.3 hPa SW 12.9 km/h 20.9 km/h 85 % 0 mm 0 W/m2
04:15 13.1 °C 10.8 °C 1002.3 hPa SW 11.3 km/h 20.9 km/h 86 % 0 mm 0 W/m2
04:20 12.9 °C 10.8 °C 1002.3 hPa SW 11.3 km/h 16.1 km/h 87 % 0.25 mm 0 W/m2
04:25 12.8 °C 10.8 °C 1002.3 hPa SW 8 km/h 14.5 km/h 88 % 0.25 mm 0 W/m2
04:31 12.6 °C 10.7 °C 1002.3 hPa WSW 8 km/h 14.5 km/h 88 % 0.25 mm 0 W/m2
04:36 12.5 °C 10.7 °C 1002.3 hPa WSW 8 km/h 12.9 km/h 89 % 0.25 mm 0 W/m2
04:41 12.4 °C 10.6 °C 1002.3 hPa WSW 8 km/h 16.1 km/h 89 % 0.25 mm 0 W/m2
04:46 12.4 °C 10.6 °C 1002.3 hPa SW 9.7 km/h 16.1 km/h 89 % 0.25 mm 0 W/m2
04:51 12.4 °C 10.6 °C 1002.3 hPa SW 11.3 km/h 16.1 km/h 89 % 0.25 mm 0 W/m2
04:56 12.4 °C 10.6 °C 1002.3 hPa SW 11.3 km/h 19.3 km/h 89 % 0.25 mm 0 W/m2
05:01 12.4 °C 10.6 °C 1002.3 hPa SW 11.3 km/h 20.9 km/h 89 % 0.25 mm 0 W/m2
05:06 12.4 °C 10.6 °C 1002.3 hPa SW 11.3 km/h 20.9 km/h 89 % 0.25 mm 0 W/m2
05:11 12.4 °C 10.6 °C 1002.3 hPa SW 11.3 km/h 20.9 km/h 89 % 0.25 mm 0 W/m2
05:16 12.4 °C 10.6 °C 1002.3 hPa SW 12.9 km/h 20.9 km/h 89 % 0 mm 0 W/m2
05:21 12.4 °C 10.6 °C 1002.3 hPa SW 11.3 km/h 19.3 km/h 89 % 0 mm 5 W/m2
05:26 12.4 °C 10.6 °C 1002.3 hPa SW 12.9 km/h 17.7 km/h 89 % 0 mm 9 W/m2
05:31 12.3 °C 10.6 °C 1002.3 hPa SW 12.9 km/h 19.3 km/h 89 % 0 mm 14 W/m2
05:36 12.3 °C 10.6 °C 1002.3 hPa SW 11.3 km/h 19.3 km/h 89 % 0 mm 18 W/m2
05:41 12.3 °C 10.6 °C 1002.3 hPa SW 12.9 km/h 22.5 km/h 89 % 0 mm 18 W/m2
05:46 12.4 °C 10.6 °C 1001.9 hPa SW 14.5 km/h 22.5 km/h 89 % 0 mm 19 W/m2
05:51 12.4 °C 10.6 °C 1002.3 hPa SW 12.9 km/h 20.9 km/h 89 % 0 mm 25 W/m2
05:56 12.6 °C 10.7 °C 1002.3 hPa SW 11.3 km/h 20.9 km/h 88 % 0 mm 28 W/m2
06:01 12.6 °C 10.7 °C 1002.3 hPa SW 12.9 km/h 19.3 km/h 88 % 0 mm 37 W/m2
06:03 12.6 °C 10.7 °C 1002.3 hPa SW 12.9 km/h 20.9 km/h 88 % 0 mm 35 W/m2
06:08 12.7 °C 10.8 °C 1002.3 hPa SW 14.5 km/h 20.9 km/h 88 % 0 mm 35 W/m2
06:13 12.8 °C 10.7 °C 1002.3 hPa SW 14.5 km/h 22.5 km/h 87 % 0 mm 39 W/m2
06:18 12.9 °C 10.8 °C 1002.6 hPa SW 14.5 km/h 25.7 km/h 87 % 0 mm 37 W/m2
06:23 13 °C 10.9 °C 1002.6 hPa SW 14.5 km/h 25.7 km/h 87 % 0 mm 42 W/m2
06:28 12.9 °C 10.8 °C 1002.6 hPa SW 14.5 km/h 25.7 km/h 87 % 0 mm 44 W/m2
06:33 13 °C 10.9 °C 1002.6 hPa SW 12.9 km/h 25.7 km/h 87 % 0 mm 54 W/m2
06:38 12.9 °C 10.8 °C 1002.6 hPa SW 11.3 km/h 19.3 km/h 87 % 0 mm 58 W/m2
06:43 12.9 °C 10.8 °C 1002.6 hPa SW 12.9 km/h 19.3 km/h 87 % 0 mm 67 W/m2
06:48 12.9 °C 10.9 °C 1002.6 hPa WSW 11.3 km/h 19.3 km/h 88 % 0 mm 60 W/m2
06:53 12.9 °C 10.9 °C 1002.6 hPa WSW 9.7 km/h 17.7 km/h 88 % 0 mm 70 W/m2
06:58 12.9 °C 10.8 °C 1002.6 hPa SW 11.3 km/h 20.9 km/h 87 % 0 mm 77 W/m2
07:03 13 °C 10.9 °C 1002.6 hPa SW 12.9 km/h 20.9 km/h 87 % 0 mm 76 W/m2
07:08 13.1 °C 10.8 °C 1002.6 hPa SW 11.3 km/h 19.3 km/h 86 % 0 mm 79 W/m2
07:13 13.2 °C 10.9 °C 1002.6 hPa SW 12.9 km/h 22.5 km/h 86 % 0 mm 70 W/m2
07:18 13.2 °C 10.9 °C 1002.6 hPa SW 12.9 km/h 29 km/h 86 % 0 mm 128 W/m2
07:23 13.3 °C 11 °C 1002.6 hPa WSW 12.9 km/h 29 km/h 86 % 0 mm 100 W/m2
07:28 13.4 °C 10.9 °C 1002.6 hPa WSW 12.9 km/h 25.7 km/h 85 % 0 mm 102 W/m2
07:33 13.4 °C 10.9 °C 1002.6 hPa WSW 14.5 km/h 25.7 km/h 85 % 0 mm 104 W/m2
07:38 13.5 °C 11 °C 1002.6 hPa SW 14.5 km/h 25.7 km/h 85 % 0 mm 125 W/m2
07:43 13.6 °C 10.9 °C 1002.6 hPa WSW 14.5 km/h 25.7 km/h 84 % 0 mm 149 W/m2
07:48 13.8 °C 11.2 °C 1002.6 hPa WSW 12.9 km/h 24.1 km/h 84 % 0 mm 151 W/m2
07:53 13.9 °C 11.1 °C 1002.9 hPa WSW 11.3 km/h 19.3 km/h 83 % 0 mm 141 W/m2
07:58 14.1 °C 11.1 °C 1002.9 hPa WSW 12.9 km/h 30.6 km/h 82 % 0 mm 132 W/m2
08:03 14.2 °C 11 °C 1002.9 hPa WSW 14.5 km/h 30.6 km/h 81 % 0 mm 130 W/m2
08:08 14.2 °C 11 °C 1002.9 hPa WSW 16.1 km/h 24.1 km/h 81 % 0 mm 171 W/m2
08:13 14.3 °C 10.9 °C 1002.9 hPa SW 17.7 km/h 32.2 km/h 80 % 0 mm 199 W/m2
08:18 14.5 °C 11.1 °C 1002.9 hPa SW 20.9 km/h 37 km/h 80 % 0 mm 174 W/m2
08:23 14.6 °C 11 °C 1002.9 hPa SW 22.5 km/h 38.6 km/h 79 % 0 mm 156 W/m2
08:28 14.6 °C 11 °C 1002.9 hPa WSW 20.9 km/h 38.6 km/h 79 % 0 mm 116 W/m2
08:33 14.7 °C 11.3 °C 1002.9 hPa WSW 20.9 km/h 32.2 km/h 80 % 0 mm 425 W/m2
08:38 15 °C 11.4 °C 1002.9 hPa SW 20.9 km/h 33.8 km/h 79 % 0 mm 466 W/m2
08:43 15.2 °C 11.2 °C 1002.9 hPa SW 20.9 km/h 40.2 km/h 77 % 0 mm 461 W/m2
08:48 15.4 °C 11.4 °C 1002.9 hPa SW 20.9 km/h 40.2 km/h 77 % 0 mm 473 W/m2
08:49 15.4 °C 11.4 °C 1002.9 hPa WSW 20.9 km/h 40.2 km/h 77 % 0 mm 476 W/m2
08:54 15.6 °C 11.2 °C 1003.3 hPa SW 22.5 km/h 40.2 km/h 75 % 0 mm 508 W/m2
08:59 15.8 °C 11.6 °C 1003.3 hPa SW 20.9 km/h 40.2 km/h 76 % 0 mm 540 W/m2
09:04 16.1 °C 11.4 °C 1003.3 hPa WSW 20.9 km/h 38.6 km/h 74 % 0 mm 538 W/m2
09:09 16.3 °C 11.4 °C 1003.6 hPa WSW 24.1 km/h 41.8 km/h 73 % 0 mm 577 W/m2
09:14 16.5 °C 11.2 °C 1003.6 hPa WSW 25.7 km/h 43.5 km/h 71 % 0 mm 624 W/m2
09:19 16.6 °C 11.1 °C 1003.6 hPa WSW 27.4 km/h 43.5 km/h 70 % 0 mm 629 W/m2
09:24 16.6 °C 11.1 °C 1003.6 hPa WSW 27.4 km/h 43.5 km/h 70 % 0 mm 659 W/m2
09:29 16.7 °C 11.2 °C 1003.6 hPa WSW 25.7 km/h 38.6 km/h 70 % 0 mm 842 W/m2
09:34 16.9 °C 11.4 °C 1003.6 hPa WSW 22.5 km/h 37 km/h 70 % 0 mm 251 W/m2
09:39 16.7 °C 11.4 °C 1003.6 hPa WSW 22.5 km/h 37 km/h 71 % 0 mm 248 W/m2
09:45 16.3 °C 11.4 °C 1003.6 hPa WSW 20.9 km/h 37 km/h 73 % 0 mm 357 W/m2
09:50 16.2 °C 11.2 °C 1003.6 hPa WSW 17.7 km/h 37 km/h 72 % 0 mm 318 W/m2
09:55 16.4 °C 11.3 °C 1003.6 hPa WSW 16.1 km/h 30.6 km/h 72 % 0 mm 432 W/m2
10:00 16.7 °C 11.2 °C 1003.6 hPa WSW 17.7 km/h 33.8 km/h 70 % 0 mm 360 W/m2
10:05 16.6 °C 11.1 °C 1003.6 hPa SW 17.7 km/h 33.8 km/h 70 % 0 mm 429 W/m2
10:10 16.7 °C 11.6 °C 1003.6 hPa SW 16.1 km/h 29 km/h 72 % 0 mm 207 W/m2
10:15 16.9 °C 11.6 °C 1003.6 hPa SW 14.5 km/h 25.7 km/h 71 % 0 mm 696 W/m2
10:20 17.2 °C 11.4 °C 1003.6 hPa WSW 16.1 km/h 32.2 km/h 69 % 0 mm 809 W/m2
10:25 17.5 °C 11.7 °C 1003.6 hPa SW 17.7 km/h 32.2 km/h 69 % 0 mm 800 W/m2
10:30 17.9 °C 11.4 °C 1003.6 hPa WSW 17.7 km/h 29 km/h 66 % 0 mm 788 W/m2
10:35 18.2 °C 11.7 °C 1003.6 hPa WSW 19.3 km/h 30.6 km/h 66 % 0 mm 881 W/m2
10:40 18.4 °C 11.2 °C 1003.6 hPa WSW 19.3 km/h 32.2 km/h 63 % 0 mm 1021 W/m2
10:45 18.4 °C 11.4 °C 1003.6 hPa SW 17.7 km/h 32.2 km/h 64 % 0 mm 341 W/m2
10:50 18.2 °C 10.8 °C 1003.6 hPa SW 17.7 km/h 35.4 km/h 62 % 0 mm 316 W/m2
10:55 18 °C 11.3 °C 1003.3 hPa SW 16.1 km/h 35.4 km/h 65 % 0 mm 900 W/m2
11:00 18.3 °C 10.9 °C 1003.6 hPa WSW 16.1 km/h 32.2 km/h 62 % 0 mm 341 W/m2
11:05 18.4 °C 10.7 °C 1003.3 hPa WSW 19.3 km/h 33.8 km/h 61 % 0 mm 232 W/m2
11:10 18.4 °C 11.2 °C 1003.3 hPa WSW 16.1 km/h 33.8 km/h 63 % 0 mm 443 W/m2
11:15 18.6 °C 11.2 °C 1003.3 hPa WSW 16.1 km/h 25.7 km/h 62 % 0 mm 413 W/m2
11:20 18.8 °C 11.4 °C 1003.3 hPa WSW 16.1 km/h 29 km/h 62 % 0 mm 385 W/m2
11:25 18.8 °C 11.1 °C 1003.3 hPa WSW 19.3 km/h 37 km/h 61 % 0 mm 425 W/m2
11:30 18.8 °C 11.4 °C 1003.3 hPa WSW 20.9 km/h 37 km/h 62 % 0 mm 1058 W/m2
11:35 19.2 °C 11.5 °C 1003.3 hPa WSW 20.9 km/h 33.8 km/h 61 % 0 mm 1046 W/m2
11:40 19.1 °C 11.7 °C 1003.3 hPa SW 17.7 km/h 32.2 km/h 62 % 0 mm 387 W/m2
11:45 19.1 °C 11.9 °C 1003.3 hPa SW 16.1 km/h 30.6 km/h 63 % 0 mm 318 W/m2
11:50 19.3 °C 11.8 °C 1003.3 hPa SW 17.7 km/h 33.8 km/h 62 % 0 mm 313 W/m2
11:55 19.3 °C 12.1 °C 1003.3 hPa WSW 17.7 km/h 33.8 km/h 63 % 0 mm 461 W/m2
12:00 19.3 °C 12.3 °C 1003.3 hPa SW 17.7 km/h 25.7 km/h 64 % 0 mm 243 W/m2
12:05 19.3 °C 12.6 °C 1003.3 hPa SW 17.7 km/h 30.6 km/h 65 % 0 mm 953 W/m2
12:10 19.6 °C 12.8 °C 1002.9 hPa SW 17.7 km/h 30.6 km/h 65 % 0 mm 1120 W/m2
12:15 20.1 °C 13.1 °C 1002.9 hPa SW 17.7 km/h 29 km/h 64 % 0 mm 1069 W/m2
12:20 20.3 °C 12.6 °C 1003.3 hPa SW 25.7 km/h 49.9 km/h 61 % 0 mm 974 W/m2
12:25 20.4 °C 12.6 °C 1002.9 hPa SW 27.4 km/h 49.9 km/h 61 % 0 mm 1055 W/m2
12:35 20.4 °C 13.1 °C 1002.9 hPa SW 20.9 km/h 41.8 km/h 63 % 0 mm 1009 W/m2
12:40 20.6 °C 12.8 °C 1002.9 hPa SW 22.5 km/h 38.6 km/h 61 % 0 mm 431 W/m2
12:45 20.5 °C 12.7 °C 1002.9 hPa SW 20.9 km/h 35.4 km/h 61 % 0 mm 250 W/m2
12:50 20.5 °C 12.7 °C 1002.9 hPa SW 17.7 km/h 35.4 km/h 61 % 0 mm 1044 W/m2
12:55 20.5 °C 12.7 °C 1002.9 hPa SW 20.9 km/h 40.2 km/h 61 % 0 mm 1102 W/m2
13:00 20.4 °C 13.3 °C 1002.9 hPa SW 24.1 km/h 40.2 km/h 64 % 0 mm 1141 W/m2
13:05 20.5 °C 13.2 °C 1002.9 hPa SW 19.3 km/h 32.2 km/h 63 % 0 mm 1069 W/m2
13:10 20.7 °C 13.4 °C 1002.9 hPa SW 20.9 km/h 35.4 km/h 63 % 0 mm 1069 W/m2
13:15 20.7 °C 13.2 °C 1002.9 hPa SW 22.5 km/h 38.6 km/h 62 % 0 mm 420 W/m2
13:20 20.4 °C 13.3 °C 1002.9 hPa SW 24.1 km/h 38.6 km/h 64 % 0 mm 538 W/m2
13:25 20.1 °C 13.6 °C 1002.9 hPa SSW 24.1 km/h 37 km/h 66 % 0 mm 573 W/m2
13:30 19.9 °C 13.6 °C 1002.9 hPa SSW 22.5 km/h 33.8 km/h 67 % 0 mm 332 W/m2
13:35 19.7 °C 13.6 °C 1002.9 hPa SSW 19.3 km/h 37 km/h 68 % 0 mm 188 W/m2
13:40 19.3 °C 13.7 °C 1003.3 hPa SW 20.9 km/h 38.6 km/h 70 % 0 mm 84 W/m2
13:45 18.7 °C 13.8 °C 1003.6 hPa SW 20.9 km/h 38.6 km/h 73 % 0 mm 91 W/m2
13:50 18.1 °C 14.2 °C 1003.6 hPa SW 20.9 km/h 37 km/h 78 % 0 mm 232 W/m2
14:00 17.3 °C 14.4 °C 1003.6 hPa SW 17.7 km/h 29 km/h 83 % 0 mm 151 W/m2
14:06 16.9 °C 14.3 °C 1003.6 hPa SW 17.7 km/h 25.7 km/h 85 % 0 mm 135 W/m2
14:11 16.7 °C 14.5 °C 1003.6 hPa SW 14.5 km/h 24.1 km/h 87 % 0.25 mm 158 W/m2
14:16 16.4 °C 14.4 °C 1003.6 hPa SW 11.3 km/h 20.9 km/h 88 % 0.25 mm 206 W/m2
14:21 16.4 °C 14.6 °C 1003.6 hPa SW 9.7 km/h 14.5 km/h 89 % 0.51 mm 169 W/m2
14:26 16.4 °C 14.9 °C 1003.3 hPa SSW 8 km/h 14.5 km/h 91 % 0.51 mm 153 W/m2
14:31 16.3 °C 14.8 °C 1003.6 hPa SSW 8 km/h 16.1 km/h 91 % 0.51 mm 120 W/m2
14:36 16.3 °C 14.8 °C 1003.6 hPa SW 9.7 km/h 16.1 km/h 91 % 0.51 mm 113 W/m2
14:41 16.2 °C 14.7 °C 1003.3 hPa SSW 9.7 km/h 14.5 km/h 91 % 1.02 mm 79 W/m2
14:46 16.1 °C 14.8 °C 1003.3 hPa SSW 6.4 km/h 12.9 km/h 92 % 1.52 mm 56 W/m2
14:51 16 °C 14.7 °C 1003.3 hPa SSW 4.8 km/h 9.7 km/h 92 % 1.52 mm 49 W/m2
14:56 15.9 °C 14.8 °C 1003.3 hPa SSW 1.6 km/h 8 km/h 93 % 1.78 mm 72 W/m2
15:01 15.9 °C 14.8 °C 1002.9 hPa Calm   3.2 km/h 93 % 1.78 mm 81 W/m2
15:11 16 °C 14.9 °C 1002.9 hPa Calm   6.4 km/h 93 % 1.52 mm 97 W/m2
15:16 16 °C 14.9 °C 1002.9 hPa South 3.2 km/h 11.3 km/h 93 % 1.52 mm 160 W/m2
15:17 16 °C 14.9 °C 1002.9 hPa South 4.8 km/h 14.5 km/h 93 % 1.52 mm 123 W/m2
15:22 16 °C 14.9 °C 1002.9 hPa SSW 8 km/h 16.1 km/h 93 % 1.52 mm 54 W/m2
15:27 16 °C 14.9 °C 1002.9 hPa SSW 9.7 km/h 16.1 km/h 93 % 1.52 mm 51 W/m2
15:32 16 °C 14.9 °C 1002.9 hPa SSW 11.3 km/h 20.9 km/h 93 % 1.52 mm 56 W/m2
15:37 16.1 °C 14.9 °C 1002.9 hPa SSW 11.3 km/h 20.9 km/h 93 % 1.27 mm 211 W/m2
15:42 16.2 °C 15.1 °C 1002.6 hPa SSW 8 km/h 16.1 km/h 93 % 0.76 mm 301 W/m2
15:47 16.3 °C 15.3 °C 1002.6 hPa SSW 9.7 km/h 12.9 km/h 94 % 0.51 mm 287 W/m2
15:52 16.6 °C 15.6 °C 1002.6 hPa SSW 9.7 km/h 14.5 km/h 94 % 0.51 mm 197 W/m2
15:57 16.7 °C 15.6 °C 1002.6 hPa SSW 9.7 km/h 17.7 km/h 93 % 0.25 mm 160 W/m2
16:02 16.7 °C 15.6 °C 1002.9 hPa SSW 9.7 km/h 17.7 km/h 93 % 0.25 mm 121 W/m2
16:07 16.8 °C 15.7 °C 1002.9 hPa SSW 12.9 km/h 20.9 km/h 93 % 0.25 mm 97 W/m2
16:12 16.8 °C 15.7 °C 1002.9 hPa SW 12.9 km/h 20.9 km/h 93 % 0.51 mm 188 W/m2
16:17 16.8 °C 15.7 °C 1002.6 hPa SW 12.9 km/h 22.5 km/h 93 % 0.51 mm 229 W/m2
16:22 16.8 °C 15.7 °C 1002.6 hPa SW 12.9 km/h 24.1 km/h 93 % 0.25 mm 158 W/m2
16:27 16.8 °C 15.5 °C 1002.6 hPa SW 14.5 km/h 24.1 km/h 92 % 0.25 mm 155 W/m2
16:37 16.8 °C 15.5 °C 1002.6 hPa SW 16.1 km/h 32.2 km/h 92 % 0.25 mm 186 W/m2
16:42 16.8 °C 15.3 °C 1002.3 hPa SW 16.1 km/h 32.2 km/h 91 % 0.25 mm 183 W/m2
16:47 16.9 °C 15.4 °C 1002.6 hPa SW 14.5 km/h 25.7 km/h 91 % 0.25 mm 74 W/m2
16:52 16.9 °C 15.2 °C 1002.6 hPa SW 14.5 km/h 25.7 km/h 90 % 0.25 mm 56 W/m2
16:57 16.9 °C 15.2 °C 1002.3 hPa SW 12.9 km/h 25.7 km/h 90 % 0.25 mm 113 W/m2
17:02 17 °C 15.5 °C 1002.6 hPa SW 9.7 km/h 19.3 km/h 91 % 0.25 mm 111 W/m2
17:07 17 °C 15.5 °C 1002.6 hPa SW 9.7 km/h 19.3 km/h 91 % 0.25 mm 88 W/m2
17:12 16.9 °C 15.2 °C 1002.6 hPa SW 12.9 km/h 20.9 km/h 90 % 0 mm 91 W/m2
17:17 16.9 °C 15.4 °C 1002.3 hPa SW 14.5 km/h 22.5 km/h 91 % 0 mm 95 W/m2
17:22 16.9 °C 15.4 °C 1002.3 hPa SW 14.5 km/h 30.6 km/h 91 % 0 mm 107 W/m2
17:27 16.8 °C 15.3 °C 1002.3 hPa SSW 12.9 km/h 30.6 km/h 91 % 0 mm 72 W/m2
17:32 16.7 °C 15.2 °C 1002.3 hPa SSW 12.9 km/h 22.5 km/h 91 % 0.25 mm 67 W/m2
17:42 16.6 °C 15.1 °C 1002.3 hPa SSW 12.9 km/h 24.1 km/h 91 % 0.25 mm 49 W/m2
17:47 16.4 °C 14.9 °C 1002.3 hPa SSW 14.5 km/h 32.2 km/h 91 % 0.25 mm 44 W/m2
17:52 16.4 °C 15.1 °C 1002.3 hPa SSW 14.5 km/h 32.2 km/h 92 % 0.25 mm 39 W/m2
17:57 16.3 °C 15 °C 1002.3 hPa SSW 12.9 km/h 24.1 km/h 92 % 0.25 mm 39 W/m2
18:02 16.2 °C 14.9 °C 1002.3 hPa SSW 14.5 km/h 22.5 km/h 92 % 0.51 mm 32 W/m2
18:08 16.2 °C 14.9 °C 1002.3 hPa SSW 14.5 km/h 22.5 km/h 92 % 0.51 mm 35 W/m2
18:13 16.1 °C 14.8 °C 1001.9 hPa SSW 11.3 km/h 20.9 km/h 92 % 0.51 mm 39 W/m2
18:18 16.1 °C 14.8 °C 1001.9 hPa SSW 12.9 km/h 20.9 km/h 92 % 0.51 mm 37 W/m2
18:28 15.9 °C 14.8 °C 1001.9 hPa SSW 11.3 km/h 22.5 km/h 93 % 0.76 mm 56 W/m2
18:33 15.9 °C 14.8 °C 1001.6 hPa SSW 12.9 km/h 22.5 km/h 93 % 0.51 mm 62 W/m2
18:38 15.9 °C 14.8 °C 1001.6 hPa SSW 11.3 km/h 20.9 km/h 93 % 0.51 mm 67 W/m2
18:43 15.9 °C 14.8 °C 1001.9 hPa SSW 11.3 km/h 19.3 km/h 93 % 0.51 mm 47 W/m2
18:48 15.9 °C 14.8 °C 1001.6 hPa SSW 12.9 km/h 24.1 km/h 93 % 0.51 mm 46 W/m2
18:53 15.9 °C 14.8 °C 1001.6 hPa SSW 14.5 km/h 24.1 km/h 93 % 0.51 mm 51 W/m2
18:58 15.9 °C 14.8 °C 1001.6 hPa SSW 14.5 km/h 25.7 km/h 93 % 0.51 mm 49 W/m2
19:03 15.8 °C 14.7 °C 1001.2 hPa SSW 14.5 km/h 25.7 km/h 93 % 0.51 mm 58 W/m2
19:08 15.8 °C 14.7 °C 1001.2 hPa SSW 14.5 km/h 22.5 km/h 93 % 0.51 mm 37 W/m2
19:13 15.7 °C 14.4 °C 1001.2 hPa SSW 14.5 km/h 29 km/h 92 % 0.51 mm 26 W/m2
19:23 15.6 °C 14.3 °C 1001.6 hPa SSW 16.1 km/h 25.7 km/h 92 % 0.51 mm 21 W/m2
19:28 15.6 °C 14.4 °C 1001.2 hPa SSW 16.1 km/h 25.7 km/h 93 % 0.25 mm 14 W/m2
19:33 15.6 °C 14.4 °C 1001.2 hPa SSW 12.9 km/h 24.1 km/h 93 % 0.25 mm 11 W/m2
19:38 15.6 °C 14.4 °C 1001.2 hPa SSW 12.9 km/h 24.1 km/h 93 % 0.25 mm 9 W/m2
19:43 15.6 °C 14.4 °C 1001.2 hPa South 9.7 km/h 24.1 km/h 93 % 0.51 mm 5 W/m2
19:48 15.6 °C 14.4 °C 1001.2 hPa South 4.8 km/h 16.1 km/h 93 % 0.76 mm 7 W/m2
19:53 15.6 °C 14.4 °C 1000.9 hPa South 3.2 km/h 12.9 km/h 93 % 1.27 mm 7 W/m2
19:58 15.5 °C 14.4 °C 1000.9 hPa SSE 4.8 km/h 14.5 km/h 93 % 1.27 mm 9 W/m2
20:03 15.4 °C 14.4 °C 1000.9 hPa SSE 4.8 km/h 14.5 km/h 94 % 1.27 mm 12 W/m2
20:08 15.4 °C 14.4 °C 1000.9 hPa South 3.2 km/h 8 km/h 94 % 1.27 mm 11 W/m2
20:13 15.3 °C 14.3 °C 1000.9 hPa South 3.2 km/h 8 km/h 94 % 1.27 mm 11 W/m2
20:18 15.3 °C 14.3 °C 1000.6 hPa South 3.2 km/h 8 km/h 94 % 1.27 mm 7 W/m2
20:23 15.3 °C 14.5 °C 1000.6 hPa South 3.2 km/h 8 km/h 95 % 1.27 mm 5 W/m2
20:28 15.3 °C 14.5 °C 1000.6 hPa South 1.6 km/h 8 km/h 95 % 1.27 mm 5 W/m2
20:33 15.3 °C 14.5 °C 1000.6 hPa South 3.2 km/h 12.9 km/h 95 % 1.27 mm 5 W/m2
20:38 15.3 °C 14.5 °C 1000.6 hPa South 4.8 km/h 12.9 km/h 95 % 1.52 mm 9 W/m2
20:43 15.3 °C 14.5 °C 1000.2 hPa South 4.8 km/h 16.1 km/h 95 % 1.02 mm 5 W/m2
20:48 15.3 °C 14.5 °C 1000.2 hPa South 6.4 km/h 16.1 km/h 95 % 0.76 mm 0 W/m2
20:53 15.3 °C 14.5 °C 1000.2 hPa South 8 km/h 14.5 km/h 95 % 0.51 mm 0 W/m2
20:58 15.3 °C 14.5 °C 1000.2 hPa SSE 9.7 km/h 19.3 km/h 95 % 0.51 mm 0 W/m2
21:03 15.3 °C 14.5 °C 999.9 hPa SSE 9.7 km/h 19.3 km/h 95 % 0.51 mm 0 W/m2
21:08 15.3 °C 14.5 °C 999.9 hPa South 11.3 km/h 17.7 km/h 95 % 0.51 mm 0 W/m2
21:13 15.3 °C 14.5 °C 999.9 hPa South 11.3 km/h 17.7 km/h 95 % 0.51 mm 0 W/m2
21:18 15.3 °C 14.5 °C 999.9 hPa South 11.3 km/h 20.9 km/h 95 % 0.51 mm 0 W/m2
21:23 15.3 °C 14.5 °C 999.9 hPa South 11.3 km/h 20.9 km/h 95 % 0.51 mm 0 W/m2
21:28 15.3 °C 14.5 °C 999.5 hPa South 11.3 km/h 22.5 km/h 95 % 0.51 mm 0 W/m2
21:33 15.3 °C 14.5 °C 999.9 hPa South 9.7 km/h 22.5 km/h 95 % 0.51 mm 0 W/m2
21:38 15.3 °C 14.7 °C 999.9 hPa South 9.7 km/h 19.3 km/h 96 % 0.25 mm 0 W/m2
21:44 15.4 °C 14.8 °C 999.9 hPa SSW 11.3 km/h 24.1 km/h 96 % 0.25 mm 0 W/m2
21:49 15.4 °C 14.8 °C 999.5 hPa SSW 12.9 km/h 24.1 km/h 96 % 0.25 mm 0 W/m2
21:54 15.4 °C 14.8 °C 999.9 hPa SSW 12.9 km/h 25.7 km/h 96 % 0.51 mm 0 W/m2
21:59 15.5 °C 14.9 °C 999.9 hPa SSW 12.9 km/h 25.7 km/h 96 % 0.25 mm 0 W/m2
22:04 15.5 °C 14.9 °C 999.5 hPa SSW 11.3 km/h 20.9 km/h 96 % 0.51 mm 0 W/m2
22:09 15.5 °C 14.9 °C 999.5 hPa SSW 12.9 km/h 20.9 km/h 96 % 0.51 mm 0 W/m2
22:14 15.5 °C 14.9 °C 999.5 hPa SSW 11.3 km/h 20.9 km/h 96 % 0.51 mm 0 W/m2
22:24 15.6 °C 14.9 °C 999.5 hPa SSW 12.9 km/h 22.5 km/h 96 % 0.51 mm 0 W/m2
22:29 15.6 °C 14.9 °C 999.5 hPa SSW 11.3 km/h 22.5 km/h 96 % 0.51 mm 0 W/m2
22:34 15.6 °C 14.9 °C 999.5 hPa SSW 11.3 km/h 22.5 km/h 96 % 0.51 mm 0 W/m2
22:39 15.5 °C 14.9 °C 999.5 hPa SW 11.3 km/h 19.3 km/h 96 % 0.51 mm 0 W/m2
22:44 15.5 °C 14.9 °C 999.5 hPa SW 11.3 km/h 17.7 km/h 96 % 0.51 mm 0 W/m2
22:49 15.5 °C 14.9 °C 999.5 hPa SW 11.3 km/h 19.3 km/h 96 % 0.51 mm 0 W/m2
22:54 15.6 °C 14.9 °C 999.5 hPa SW 11.3 km/h 19.3 km/h 96 % 0.25 mm 0 W/m2
22:59 15.6 °C 14.9 °C 999.5 hPa SW 11.3 km/h 19.3 km/h 96 % 0.25 mm 0 W/m2
23:04 15.6 °C 14.9 °C 999.5 hPa SW 11.3 km/h 17.7 km/h 96 % 0 mm 0 W/m2
23:09 15.6 °C 14.8 °C 999.5 hPa WSW 8 km/h 16.1 km/h 95 % 0 mm 0 W/m2
23:14 15.6 °C 14.8 °C 999.5 hPa WSW 8 km/h 14.5 km/h 95 % 0 mm 0 W/m2
23:19 15.6 °C 14.8 °C 999.5 hPa West 8 km/h 14.5 km/h 95 % 0 mm 0 W/m2
23:24 15.7 °C 14.9 °C 999.9 hPa West 11.3 km/h 20.9 km/h 95 % 0 mm 0 W/m2
23:29 15.7 °C 14.9 °C 999.9 hPa WSW 11.3 km/h 20.9 km/h 95 % 0 mm 0 W/m2
23:34 15.8 °C 15 °C 999.9 hPa West 11.3 km/h 20.9 km/h 95 % 0 mm 0 W/m2
23:39 15.8 °C 15 °C 999.9 hPa West 12.9 km/h 20.9 km/h 95 % 0 mm 0 W/m2
23:44 15.8 °C 15 °C 999.9 hPa West 12.9 km/h 19.3 km/h 95 % 0 mm 0 W/m2
23:49 15.9 °C 15.1 °C 1000.2 hPa West 14.5 km/h 24.1 km/h 95 % 0 mm 0 W/m2
23:54 15.9 °C 14.9 °C 1000.2 hPa West 16.1 km/h 24.1 km/h 94 % 0 mm 0 W/m2
23:59 15.9 °C 14.9 °C 1000.6 hPa West 12.9 km/h 22.5 km/h 94 % 0 mm 0 W/m2
Delerius-Weather
Compliments of Weather Underground - 2.25 mb

Data updates at regular intervals.